createdAt,value
2023-05-12T00:01:56.804Z,10.30
2023-05-12T00:04:25.861Z,10.10
2023-05-12T00:06:54.125Z,10.20
2023-05-12T00:09:22.243Z,10.20
2023-05-12T00:11:50.592Z,10.30
2023-05-12T00:14:18.975Z,10.10
2023-05-12T00:16:51.536Z,9.90
2023-05-12T00:19:21.433Z,10.30
2023-05-12T00:21:49.602Z,10.10
2023-05-12T00:24:17.777Z,10.10
2023-05-12T00:26:46.027Z,10.00
2023-05-12T00:29:14.215Z,9.80
2023-05-12T00:31:42.587Z,9.70
2023-05-12T00:34:11.180Z,9.80
2023-05-12T00:36:41.009Z,9.80
2023-05-12T00:39:09.931Z,9.70
2023-05-12T00:41:38.145Z,9.80
2023-05-12T00:44:06.712Z,9.60
2023-05-12T00:46:34.911Z,9.70
2023-05-12T00:49:03.353Z,9.80
2023-05-12T00:51:34.758Z,9.60
2023-05-12T00:54:04.609Z,9.80
2023-05-12T00:56:38.420Z,9.80
2023-05-12T00:59:06.802Z,9.70
2023-05-12T01:01:35.236Z,9.70
2023-05-12T01:04:03.911Z,9.60
2023-05-12T01:06:35.844Z,9.50
2023-05-12T01:09:05.527Z,9.50
2023-05-12T01:11:33.948Z,9.40
2023-05-12T01:14:02.028Z,9.40
2023-05-12T01:16:32.843Z,9.40
2023-05-12T01:19:01.833Z,9.30
2023-05-12T01:21:30.252Z,9.30
2023-05-12T01:23:59.893Z,9.30
2023-05-12T01:26:30.170Z,9.40
2023-05-12T01:28:58.874Z,9.50
2023-05-12T01:31:27.374Z,9.50
2023-05-12T01:33:55.544Z,9.50
2023-05-12T01:36:23.719Z,9.30
2023-05-12T01:38:51.999Z,9.50
2023-05-12T01:41:20.321Z,9.40
2023-05-12T01:43:51.217Z,9.30
2023-05-12T01:46:19.445Z,9.30
2023-05-12T01:48:47.776Z,9.40
2023-05-12T01:51:16.934Z,9.10
2023-05-12T01:53:45.120Z,9.20
2023-05-12T01:56:13.327Z,9.20
2023-05-12T01:58:41.923Z,9.20
2023-05-12T02:01:11.560Z,9.30
2023-05-12T02:03:40.029Z,9.40
2023-05-12T02:06:09.840Z,9.30
2023-05-12T02:08:38.254Z,9.40
2023-05-12T02:11:07.266Z,9.50
2023-05-12T02:13:35.635Z,9.50
2023-05-12T02:16:04.134Z,9.50
2023-05-12T02:18:33.706Z,9.60
2023-05-12T02:21:01.933Z,9.50
2023-05-12T02:23:33.330Z,9.50
2023-05-12T02:26:01.483Z,9.50
2023-05-12T02:28:29.781Z,9.50
2023-05-12T02:30:57.928Z,9.50
2023-05-12T02:33:27.008Z,9.50
2023-05-12T02:35:56.589Z,9.40
2023-05-12T02:38:24.937Z,9.40
2023-05-12T02:40:53.041Z,9.40
2023-05-12T02:43:21.468Z,9.50
2023-05-12T02:45:49.741Z,9.50
2023-05-12T02:48:20.897Z,9.50
2023-05-12T02:50:49.088Z,9.50
2023-05-12T02:53:18.833Z,9.50
2023-05-12T02:55:46.984Z,9.50
2023-05-12T02:58:17.716Z,9.50
2023-05-12T03:00:46.126Z,9.60
2023-05-12T03:03:15.837Z,9.60
2023-05-12T03:05:44.612Z,9.50
2023-05-12T03:08:13.000Z,9.50
2023-05-12T03:10:43.771Z,9.50
2023-05-12T03:13:12.001Z,9.50
2023-05-12T03:15:40.174Z,9.50
2023-05-12T03:18:08.385Z,9.70
2023-05-12T03:20:36.732Z,9.60
2023-05-12T03:23:05.163Z,9.60
2023-05-12T03:25:35.292Z,9.60
2023-05-12T03:28:05.648Z,9.60
2023-05-12T03:30:34.279Z,9.70
2023-05-12T03:33:02.797Z,9.80
2023-05-12T03:35:31.223Z,9.80
2023-05-12T03:37:59.404Z,9.80
2023-05-12T03:40:28.231Z,10.00
2023-05-12T03:42:56.403Z,9.90
2023-05-12T03:45:26.133Z,10.10
2023-05-12T03:47:54.407Z,10.20
2023-05-12T03:50:22.777Z,10.40
2023-05-12T03:52:56.103Z,10.50
2023-05-12T03:55:24.347Z,10.60
2023-05-12T03:57:52.436Z,10.60
2023-05-12T04:00:22.372Z,10.60
2023-05-12T04:02:52.349Z,11.00
2023-05-12T04:05:20.964Z,11.10
2023-05-12T04:07:49.133Z,11.10
2023-05-12T04:10:17.562Z,11.30
2023-05-12T04:12:45.818Z,11.80
2023-05-12T04:15:15.023Z,11.90
2023-05-12T04:17:43.291Z,11.80
2023-05-12T04:20:13.363Z,11.80
2023-05-12T04:22:44.486Z,11.80
2023-05-12T04:25:12.674Z,12.00
2023-05-12T04:27:41.116Z,12.30
2023-05-12T04:30:09.853Z,12.40
2023-05-12T04:32:38.119Z,12.60
2023-05-12T04:35:06.650Z,13.00
2023-05-12T04:37:36.293Z,13.00
2023-05-12T04:40:04.955Z,13.20
2023-05-12T04:42:33.111Z,13.20
2023-05-12T04:45:01.390Z,13.40
2023-05-12T04:47:29.712Z,13.60
2023-05-12T04:49:57.971Z,14.00
2023-05-12T04:52:26.289Z,14.00
2023-05-12T04:54:55.915Z,14.20
2023-05-12T04:57:24.252Z,13.70
2023-05-12T04:59:55.694Z,13.90
2023-05-12T05:02:24.212Z,13.90
2023-05-12T05:04:52.780Z,14.00
2023-05-12T05:07:20.909Z,14.40
2023-05-12T05:09:49.102Z,14.30
2023-05-12T05:12:18.759Z,14.40
2023-05-12T05:14:46.858Z,14.30
2023-05-12T05:17:15.029Z,14.60
2023-05-12T05:19:57.113Z,14.40
2023-05-12T05:22:27.529Z,14.50
2023-05-12T05:24:56.426Z,14.80
2023-05-12T05:27:25.935Z,15.00
2023-05-12T05:29:54.476Z,14.80
2023-05-12T05:32:22.927Z,14.90
2023-05-12T05:34:51.317Z,15.20
2023-05-12T05:37:19.706Z,15.30
2023-05-12T05:39:47.815Z,15.40
2023-05-12T05:42:16.125Z,15.10
2023-05-12T05:44:45.907Z,15.40
2023-05-12T05:47:17.098Z,15.50
2023-05-12T05:49:45.889Z,15.80
2023-05-12T05:52:14.059Z,15.70
2023-05-12T05:54:42.483Z,15.90
2023-05-12T05:57:10.758Z,15.80
2023-05-12T05:59:39.089Z,15.90
2023-05-12T06:02:08.927Z,15.90
2023-05-12T06:04:37.094Z,16.20
2023-05-12T06:07:05.531Z,16.10
2023-05-12T06:09:33.728Z,16.20
2023-05-12T06:12:01.901Z,16.50
2023-05-12T06:14:30.220Z,16.50
2023-05-12T06:16:58.528Z,16.50
2023-05-12T06:19:28.191Z,16.50
2023-05-12T06:21:56.527Z,16.80
2023-05-12T06:24:24.689Z,16.80
2023-05-12T06:26:52.999Z,16.70
2023-05-12T06:29:21.486Z,16.80
2023-05-12T06:31:49.733Z,16.70
2023-05-12T06:34:17.994Z,16.90
2023-05-12T06:36:47.584Z,16.90
2023-05-12T06:39:16.156Z,17.10
2023-05-12T06:41:44.503Z,17.40
2023-05-12T06:44:12.948Z,17.40
2023-05-12T06:46:41.406Z,17.60
2023-05-12T06:49:09.941Z,17.60
2023-05-12T06:51:38.108Z,17.50
2023-05-12T06:54:07.826Z,17.30
2023-05-12T06:56:35.998Z,17.40
2023-05-12T06:59:04.806Z,17.50
2023-05-12T07:01:33.764Z,17.70
2023-05-12T07:04:02.221Z,17.80
2023-05-12T07:06:31.749Z,17.90
2023-05-12T07:08:59.980Z,18.00
2023-05-12T07:11:29.660Z,18.00
2023-05-12T07:13:57.785Z,17.90
2023-05-12T07:16:26.172Z,17.80
2023-05-12T07:18:54.343Z,18.20
2023-05-12T07:21:22.623Z,18.40
2023-05-12T07:23:50.824Z,18.50
2023-05-12T07:26:19.084Z,18.60
2023-05-12T07:28:48.667Z,18.60
2023-05-12T07:31:17.200Z,18.60
2023-05-12T07:33:45.683Z,18.70
2023-05-12T07:36:14.132Z,18.60
2023-05-12T07:38:44.971Z,18.70
2023-05-12T07:41:13.344Z,18.50
2023-05-12T07:43:41.497Z,18.70
2023-05-12T07:46:11.255Z,18.60
2023-05-12T07:48:40.530Z,18.70
2023-05-12T07:51:08.978Z,18.80
2023-05-12T07:53:37.340Z,18.80
2023-05-12T07:56:05.857Z,18.80
2023-05-12T07:58:34.100Z,18.90
2023-05-12T08:01:06.203Z,18.80
2023-05-12T08:03:37.782Z,19.00
2023-05-12T08:06:07.567Z,19.20
2023-05-12T08:08:36.754Z,19.20
2023-05-12T08:11:10.260Z,19.40
2023-05-12T08:13:38.934Z,19.30
2023-05-12T08:16:07.095Z,19.40
2023-05-12T08:18:36.837Z,19.60
2023-05-12T08:21:05.427Z,19.50
2023-05-12T08:23:33.763Z,19.40
2023-05-12T08:26:02.018Z,19.60
2023-05-12T08:28:30.666Z,19.60
2023-05-12T08:30:59.037Z,19.80
2023-05-12T08:33:27.332Z,20.00
2023-05-12T08:35:59.608Z,19.90
2023-05-12T08:38:29.139Z,19.90
2023-05-12T08:41:01.654Z,20.00
2023-05-12T08:43:35.186Z,20.30
2023-05-12T08:46:03.354Z,20.20
2023-05-12T08:48:32.514Z,20.30
2023-05-12T08:51:02.471Z,20.30
2023-05-12T08:53:30.949Z,20.50
2023-05-12T08:57:09.341Z,20.60
2023-05-12T08:58:51.230Z,20.60
2023-05-12T09:01:19.837Z,20.80
2023-05-12T09:03:48.232Z,20.80
2023-05-12T09:06:18.343Z,20.90
2023-05-12T09:08:46.792Z,20.90
2023-05-12T09:11:15.492Z,20.90
2023-05-12T09:13:48.655Z,20.80
2023-05-12T09:16:19.637Z,20.80
2023-05-12T09:18:51.529Z,20.90
2023-05-12T09:21:24.340Z,21.20
2023-05-12T09:23:56.325Z,21.20
2023-05-12T09:26:24.967Z,21.30
2023-05-12T09:28:54.056Z,21.40
2023-05-12T09:31:23.828Z,21.70
2023-05-12T09:33:52.693Z,21.70
2023-05-12T09:36:21.550Z,21.80
2023-05-12T09:39:04.954Z,21.80
2023-05-12T09:41:36.132Z,21.70
2023-05-12T09:44:04.423Z,21.70
2023-05-12T09:46:32.788Z,21.70
2023-05-12T09:49:02.437Z,21.90
2023-05-12T09:51:30.968Z,21.90
2023-05-12T09:54:00.990Z,21.90
2023-05-12T09:56:31.467Z,22.00
2023-05-12T09:59:00.049Z,22.00
2023-05-12T10:01:28.408Z,22.10
2023-05-12T10:03:57.539Z,22.40
2023-05-12T10:06:28.428Z,22.40
2023-05-12T10:09:00.231Z,22.50
2023-05-12T10:11:30.489Z,22.40
2023-05-12T10:13:59.126Z,22.40
2023-05-12T10:16:29.286Z,22.40
2023-05-12T10:18:57.761Z,22.30
2023-05-12T10:21:26.395Z,22.40
2023-05-12T10:23:55.497Z,22.70
2023-05-12T10:26:23.704Z,22.90
2023-05-12T10:28:53.699Z,23.10
2023-05-12T10:31:22.590Z,23.40
2023-05-12T10:33:57.796Z,23.50
2023-05-12T10:36:26.280Z,23.40
2023-05-12T10:38:54.987Z,23.30
2023-05-12T10:41:32.645Z,23.30
2023-05-12T10:44:02.616Z,23.40
2023-05-12T10:46:31.022Z,23.40
2023-05-12T10:49:00.135Z,23.70
2023-05-12T10:53:59.222Z,23.70
2023-05-12T10:56:28.394Z,23.70
2023-05-12T10:59:20.699Z,23.50
2023-05-12T11:02:00.278Z,23.50
2023-05-12T11:04:44.942Z,23.00
2023-05-12T11:07:14.966Z,22.70
2023-05-12T11:12:18.050Z,23.60
2023-05-12T11:14:48.279Z,24.10
2023-05-12T11:17:16.647Z,21.90
2023-05-12T11:19:46.636Z,21.10
2023-05-12T11:22:15.109Z,21.30
2023-05-12T11:24:45.831Z,21.20
2023-05-12T11:27:14.754Z,21.50
2023-05-12T11:29:43.701Z,22.30
2023-05-12T11:32:13.348Z,21.30
2023-05-12T11:34:41.640Z,20.80
2023-05-12T11:37:10.303Z,21.00
2023-05-12T11:39:38.437Z,20.70
2023-05-12T11:42:12.934Z,20.80
2023-05-12T11:44:48.185Z,20.90
2023-05-12T11:47:21.159Z,20.40
2023-05-12T11:49:51.446Z,21.00
2023-05-12T11:52:20.265Z,21.20
2023-05-12T11:54:52.330Z,21.10
2023-05-12T11:57:28.346Z,21.60
2023-05-12T12:00:00.630Z,21.90
2023-05-12T12:02:30.590Z,22.90
2023-05-12T12:04:59.000Z,22.50
2023-05-12T12:07:32.720Z,22.10
2023-05-12T12:10:02.026Z,22.30
2023-05-12T12:12:30.260Z,22.20
2023-05-12T12:15:00.393Z,22.40
2023-05-12T12:17:30.989Z,22.50
2023-05-12T12:20:00.681Z,22.00
2023-05-12T12:22:37.108Z,21.90
2023-05-12T12:25:06.167Z,21.90
2023-05-12T12:27:34.582Z,22.00
2023-05-12T12:30:02.717Z,21.50
2023-05-12T12:32:31.387Z,21.50
2023-05-12T12:35:03.886Z,22.60
2023-05-12T12:37:32.332Z,22.30
2023-05-12T12:40:07.827Z,22.00
2023-05-12T12:42:36.834Z,21.50
2023-05-12T12:45:05.365Z,20.60
2023-05-12T12:47:33.635Z,21.30
2023-05-12T12:50:06.931Z,21.20
2023-05-12T12:52:39.515Z,21.30
2023-05-12T12:55:10.805Z,21.30
2023-05-12T12:57:39.220Z,22.00
2023-05-12T13:00:08.825Z,21.70
2023-05-12T13:02:37.259Z,21.30
2023-05-12T13:05:07.927Z,21.10
2023-05-12T13:07:36.054Z,20.40
2023-05-12T13:10:04.348Z,20.50
2023-05-12T13:12:32.645Z,21.10
2023-05-12T13:15:03.403Z,21.50
2023-05-12T13:17:31.560Z,22.00
2023-05-12T13:19:59.921Z,22.40
2023-05-12T13:22:29.657Z,22.20
2023-05-12T13:24:57.820Z,22.60
2023-05-12T13:27:26.072Z,21.90
2023-05-12T13:29:54.251Z,22.10
2023-05-12T13:32:22.670Z,22.50
2023-05-12T13:34:50.865Z,21.90
2023-05-12T13:37:19.255Z,22.30
2023-05-12T13:39:48.819Z,22.10
2023-05-12T13:42:17.272Z,22.90
2023-05-12T13:44:48.908Z,22.80
2023-05-12T13:47:17.611Z,22.20
2023-05-12T13:49:45.858Z,22.10
2023-05-12T13:52:15.060Z,22.20
2023-05-12T13:54:46.090Z,22.30
2023-05-12T13:57:15.715Z,22.60
2023-05-12T13:59:47.202Z,23.10
2023-05-12T14:02:15.578Z,22.40
2023-05-12T14:04:43.793Z,22.60
2023-05-12T14:07:12.804Z,22.50
2023-05-12T14:09:41.338Z,22.30
2023-05-12T14:12:09.811Z,23.40
2023-05-12T14:14:39.439Z,22.70
2023-05-12T14:17:07.620Z,22.30
2023-05-12T14:19:36.404Z,21.80
2023-05-12T14:22:09.958Z,22.00
2023-05-12T14:24:47.211Z,22.20
2023-05-12T14:27:15.613Z,22.00
2023-05-12T14:29:45.233Z,22.00
2023-05-12T14:32:14.647Z,21.80
2023-05-12T14:34:43.038Z,22.30
2023-05-12T14:37:11.263Z,22.40
2023-05-12T14:39:39.453Z,22.60
2023-05-12T14:42:08.022Z,21.40
2023-05-12T14:44:36.293Z,21.70
2023-05-12T14:47:07.524Z,22.20
2023-05-12T14:49:37.278Z,22.10
2023-05-12T14:52:05.685Z,23.00
2023-05-12T14:54:34.563Z,23.20
2023-05-12T14:57:03.757Z,22.90
2023-05-12T14:59:32.110Z,22.40
2023-05-12T15:02:00.299Z,23.00
2023-05-12T15:04:32.366Z,22.70
2023-05-12T15:07:00.624Z,22.80
2023-05-12T15:09:28.837Z,21.80
2023-05-12T15:11:56.999Z,22.10
2023-05-12T15:16:58.397Z,21.70
2023-05-12T15:19:26.554Z,22.30
2023-05-12T15:21:56.230Z,22.30
2023-05-12T15:24:24.520Z,22.30
2023-05-12T15:26:52.693Z,22.20
2023-05-12T15:29:21.528Z,21.60
2023-05-12T15:31:49.993Z,21.90
2023-05-12T15:34:18.340Z,21.40
2023-05-12T15:36:48.784Z,21.50
2023-05-12T15:39:18.352Z,21.20
2023-05-12T15:41:46.858Z,21.50
2023-05-12T15:44:15.105Z,21.60
2023-05-12T15:46:43.389Z,21.60
2023-05-12T15:49:12.206Z,21.10
2023-05-12T15:51:40.304Z,21.20
2023-05-12T15:54:09.493Z,21.30
2023-05-12T15:56:40.158Z,21.00
2023-05-12T15:59:08.592Z,20.80
2023-05-12T16:01:36.882Z,21.00
2023-05-12T16:04:08.178Z,21.00
2023-05-12T16:06:38.270Z,20.80
2023-05-12T16:09:06.524Z,20.30
2023-05-12T16:11:34.944Z,20.40
2023-05-12T16:14:04.688Z,20.50
2023-05-12T16:16:33.782Z,19.80
2023-05-12T16:19:02.180Z,20.00
2023-05-12T16:21:30.416Z,19.80
2023-05-12T16:23:58.860Z,19.80
2023-05-12T16:26:31.146Z,19.70
2023-05-12T16:28:59.309Z,19.80
2023-05-12T16:31:30.987Z,19.60
2023-05-12T16:34:00.348Z,19.50
2023-05-12T16:36:29.896Z,19.70
2023-05-12T16:38:58.093Z,19.90
2023-05-12T16:41:27.952Z,19.60
2023-05-12T16:43:56.901Z,19.70
2023-05-12T16:46:25.207Z,19.60
2023-05-12T16:48:54.897Z,19.70
2023-05-12T16:51:25.232Z,19.50
2023-05-12T16:53:53.430Z,19.50
2023-05-12T16:56:21.712Z,19.70
2023-05-12T16:58:49.808Z,19.20
2023-05-12T17:01:18.035Z,19.40
2023-05-12T17:03:48.599Z,19.30
2023-05-12T17:06:18.250Z,19.60
2023-05-12T17:08:48.828Z,19.70
2023-05-12T17:11:17.081Z,19.30
2023-05-12T17:13:45.592Z,19.50
2023-05-12T17:16:13.936Z,19.50
2023-05-12T17:21:14.031Z,19.30
2023-05-12T17:23:43.772Z,19.20
2023-05-12T17:26:11.939Z,18.90
2023-05-12T17:28:42.541Z,18.70
2023-05-12T17:31:10.755Z,18.30
2023-05-12T17:33:39.196Z,18.30
2023-05-12T17:36:12.898Z,18.60
2023-05-12T17:38:43.958Z,18.70
2023-05-12T17:41:12.651Z,18.60
2023-05-12T17:43:41.575Z,18.80
2023-05-12T17:46:09.866Z,18.40
2023-05-12T17:48:38.820Z,18.10
2023-05-12T17:51:07.378Z,17.80
2023-05-12T17:53:36.012Z,17.50
2023-05-12T17:56:05.967Z,18.10
2023-05-12T17:58:36.977Z,18.00
2023-05-12T18:01:06.992Z,17.30
2023-05-12T18:03:38.132Z,17.70
2023-05-12T18:06:08.993Z,17.80
2023-05-12T18:08:37.419Z,17.90
2023-05-12T18:11:07.209Z,17.70
2023-05-12T18:13:37.941Z,18.10
2023-05-12T18:16:10.790Z,17.50
2023-05-12T18:18:46.892Z,17.30
2023-05-12T18:21:15.109Z,17.40
2023-05-12T18:23:43.278Z,17.50
2023-05-12T18:26:13.063Z,17.50
2023-05-12T18:28:41.165Z,17.50
2023-05-12T18:31:15.847Z,17.20
2023-05-12T18:33:47.497Z,16.70
2023-05-12T18:36:15.870Z,16.80
2023-05-12T18:38:44.308Z,16.70
2023-05-12T18:41:13.972Z,16.60
2023-05-12T18:43:44.241Z,16.60
2023-05-12T18:46:13.590Z,16.50
2023-05-12T18:48:44.379Z,16.30
2023-05-12T18:51:12.526Z,16.50
2023-05-12T18:53:43.548Z,16.30
2023-05-12T18:56:11.926Z,16.10
2023-05-12T18:58:41.868Z,15.90
2023-05-12T19:01:10.042Z,15.90
2023-05-12T19:03:38.524Z,15.60
2023-05-12T19:06:06.713Z,15.70
2023-05-12T19:08:37.420Z,15.50
2023-05-12T19:11:05.596Z,15.30
2023-05-12T19:13:33.985Z,15.10
2023-05-12T19:16:03.594Z,15.50
2023-05-12T19:18:31.954Z,15.50
2023-05-12T19:21:00.265Z,15.10
2023-05-12T19:23:30.232Z,15.50
2023-05-12T19:25:58.545Z,15.70
2023-05-12T19:28:27.291Z,15.60
2023-05-12T19:30:56.129Z,14.60
2023-05-12T19:33:27.262Z,14.40
2023-05-12T19:35:56.070Z,14.80
2023-05-12T19:38:24.223Z,15.00
2023-05-12T19:40:52.409Z,15.00
2023-05-12T19:43:20.760Z,14.70
2023-05-12T19:45:49.109Z,14.80
2023-05-12T19:48:17.911Z,14.90
2023-05-12T19:50:47.829Z,14.80
2023-05-12T19:53:16.077Z,14.90
2023-05-12T19:55:44.216Z,14.80
2023-05-12T19:58:20.400Z,14.50
2023-05-12T20:00:50.943Z,14.50
2023-05-12T20:03:19.563Z,14.50
2023-05-12T20:05:49.597Z,14.60
2023-05-12T20:08:17.794Z,14.60
2023-05-12T20:10:46.253Z,14.40
2023-05-12T20:13:16.536Z,14.20
2023-05-12T20:15:46.924Z,14.20
2023-05-12T20:18:16.005Z,14.20
2023-05-12T20:20:45.335Z,14.10
2023-05-12T20:23:18.396Z,14.00
2023-05-12T20:25:46.785Z,14.00
2023-05-12T20:28:16.395Z,13.90
2023-05-12T20:30:47.351Z,13.80
2023-05-12T20:33:15.734Z,13.70
2023-05-12T20:35:44.132Z,13.70
2023-05-12T20:38:12.569Z,13.60
2023-05-12T20:40:42.201Z,13.50
2023-05-12T20:43:10.486Z,13.50
2023-05-12T20:45:38.843Z,13.50
2023-05-12T20:48:07.504Z,13.60
2023-05-12T20:50:37.621Z,13.60
2023-05-12T20:53:05.899Z,13.60
2023-05-12T20:55:34.478Z,13.60
2023-05-12T20:58:05.051Z,13.50
2023-05-12T21:00:36.306Z,13.60
2023-05-12T21:03:06.134Z,13.50
2023-05-12T21:05:36.680Z,13.50
2023-05-12T21:08:05.157Z,13.40
2023-05-12T21:10:34.779Z,13.50
2023-05-12T21:13:10.039Z,13.40
2023-05-12T21:15:41.266Z,13.40
2023-05-12T21:18:09.546Z,13.30
2023-05-12T21:20:38.006Z,13.30
2023-05-12T21:23:12.232Z,13.20
2023-05-12T21:25:47.447Z,13.20
2023-05-12T21:28:18.260Z,13.10
2023-05-12T21:30:48.221Z,13.10
2023-05-12T21:33:17.203Z,13.10
2023-05-12T21:35:45.606Z,13.10
2023-05-12T21:38:14.882Z,13.00
2023-05-12T21:40:43.511Z,13.00
2023-05-12T21:43:11.791Z,13.00
2023-05-12T21:45:42.529Z,13.00
2023-05-12T21:48:10.669Z,13.00
2023-05-12T21:50:39.836Z,12.90
2023-05-12T21:53:08.279Z,12.90
2023-05-12T21:55:36.691Z,12.90
2023-05-12T21:58:07.542Z,12.90
2023-05-12T22:00:39.064Z,12.90
2023-05-12T22:03:09.293Z,13.00
2023-05-12T22:05:38.583Z,13.00
2023-05-12T22:08:07.815Z,13.00
2023-05-12T22:10:36.310Z,12.90
2023-05-12T22:13:04.714Z,12.80
2023-05-12T22:15:33.569Z,12.80
2023-05-12T22:18:02.073Z,12.80
2023-05-12T22:20:35.217Z,12.70
2023-05-12T22:23:10.795Z,12.70
2023-05-12T22:25:50.898Z,12.50
2023-05-12T22:28:20.751Z,12.30
2023-05-12T22:33:31.685Z,12.20
2023-05-12T22:36:01.297Z,12.30
2023-05-12T22:38:43.717Z,12.30
2023-05-12T22:41:18.182Z,12.20
2023-05-12T22:43:46.444Z,12.10
2023-05-12T22:46:14.593Z,12.10
2023-05-12T22:48:43.597Z,12.00
2023-05-12T22:51:13.883Z,11.90
2023-05-12T22:53:42.488Z,11.90
2023-05-12T22:56:10.773Z,11.80
2023-05-12T22:58:39.178Z,11.90
2023-05-12T23:01:07.880Z,11.80
2023-05-12T23:03:36.568Z,11.80
2023-05-12T23:06:04.775Z,11.80
2023-05-12T23:08:35.789Z,11.80
2023-05-12T23:11:04.068Z,11.60
2023-05-12T23:13:32.285Z,11.60
2023-05-12T23:16:00.439Z,11.40
2023-05-12T23:18:28.865Z,11.40
2023-05-12T23:20:57.073Z,11.50
2023-05-12T23:23:25.512Z,11.40
2023-05-12T23:25:55.133Z,11.40
2023-05-12T23:28:23.425Z,11.40
2023-05-12T23:30:51.699Z,11.30
2023-05-12T23:33:20.009Z,11.20
2023-05-12T23:35:48.450Z,11.30
2023-05-12T23:38:16.543Z,11.30
2023-05-12T23:40:47.768Z,11.20
2023-05-12T23:43:17.307Z,11.00
2023-05-12T23:45:46.343Z,11.00
2023-05-12T23:48:14.521Z,11.10
2023-05-12T23:50:42.697Z,11.00
2023-05-12T23:53:10.816Z,11.00
2023-05-12T23:55:39.081Z,10.80
2023-05-12T23:58:08.237Z,10.80
